Time;durP1;ratioP1;P1;durP2;ratioP2;P2;SDS_P1;SDS_P2;PMS_P1;PMS_P2;Temp;Humidity;BMP_temperature;BMP_pressure;BME280_temperature;BME280_humidity;BME280_pressure;Samples;Min_cycle;Max_cycle;Signal;HPM_P1;HPM_P2
2024/03/11 00:01:34;;;;;;;12.50;7.35;;;;;;;11.09;61.22;99336.94;5066245;28;20038;-93
2024/03/11 00:04:00;;;;;;;11.35;7.07;;;;;;;11.17;61.17;99335.59;5064857;28;20039;-92
2024/03/11 00:06:26;;;;;;;10.30;6.60;;;;;;;11.26;61.25;99350.91;5065802;28;20052;-93
2024/03/11 00:08:52;;;;;;;10.38;6.70;;;;;;;11.04;61.32;99315.38;5048309;28;20297;-94
2024/03/11 00:11:18;;;;;;;12.88;8.43;;;;;;;11.08;61.44;99321.84;5081270;28;20020;-93
2024/03/11 00:13:45;;;;;;;12.93;8.77;;;;;;;11.05;61.28;99314.31;5049456;28;20028;-93
2024/03/11 00:16:12;;;;;;;10.40;7.32;;;;;;;11.12;61.25;99318.34;5048831;28;20115;-93
2024/03/11 00:18:40;;;;;;;11.10;7.47;;;;;;;11.11;61.65;99324.81;5066048;28;20020;-93
2024/03/11 00:21:05;;;;;;;11.45;7.90;;;;;;;11.13;61.43;99322.66;5051839;28;20505;-93
2024/03/11 00:23:31;;;;;;;15.38;7.38;;;;;;;11.09;61.59;99326.97;5085576;28;20080;-94
2024/03/11 00:25:56;;;;;;;11.45;7.20;;;;;;;11.01;61.78;99324.81;5069259;28;20026;-93
2024/03/11 00:28:23;;;;;;;10.70;6.85;;;;;;;11.13;61.96;99346.09;5069643;28;20108;-93
2024/03/11 00:30:49;;;;;;;11.68;7.82;;;;;;;10.97;62.18;99322.97;5048259;28;20089;-94
2024/03/11 00:33:17;;;;;;;12.38;7.78;;;;;;;10.96;62.37;99330.25;5064567;28;20027;-94
2024/03/11 00:35:44;;;;;;;13.27;7.47;;;;;;;10.96;62.45;99329.41;5049547;28;20181;-91
2024/03/11 00:38:09;;;;;;;11.65;7.82;;;;;;;10.88;62.72;99312.72;5085749;28;20035;-93
2024/03/11 00:40:35;;;;;;;15.10;7.53;;;;;;;10.84;63.01;99308.97;5084235;28;20031;-94
2024/03/11 00:43:01;;;;;;;11.10;7.68;;;;;;;10.80;62.88;99309.78;5067784;28;20176;-93
2024/03/11 00:45:26;;;;;;;9.32;6.57;;;;;;;10.82;62.70;99311.13;5068078;28;20027;-93
2024/03/11 00:47:52;;;;;;;10.95;6.85;;;;;;;10.79;63.34;99308.16;5068327;28;20043;-93
2024/03/11 00:50:19;;;;;;;11.98;7.55;;;;;;;10.74;63.54;99297.41;5066841;28;20027;-93
2024/03/11 00:52:44;;;;;;;13.43;7.70;;;;;;;10.77;63.51;99315.69;5068747;28;20062;-92
2024/03/11 00:55:10;;;;;;;17.25;8.40;;;;;;;10.64;63.67;99301.72;5067527;28;20104;-93
2024/03/11 00:57:36;;;;;;;15.15;7.80;;;;;;;10.56;63.79;99298.75;5087147;28;20027;-94
2024/03/11 01:00:05;;;;;;;12.07;7.40;;;;;;;10.61;64.25;99318.41;5068169;28;20408;-93
2024/03/11 01:02:34;;;;;;;12.32;7.53;;;;;;;10.55;64.37;99303.34;5067284;28;20027;-93
2024/03/11 01:05:00;;;;;;;14.32;8.25;;;;;;;10.49;64.41;99299.84;5068806;28;20024;-92
2024/03/11 01:07:26;;;;;;;13.25;7.57;;;;;;;10.32;64.51;99293.91;5064180;28;20063;-93
2024/03/11 01:09:52;;;;;;;13.18;7.93;;;;;;;10.38;64.85;99298.22;5066069;28;20027;-94
2024/03/11 01:12:17;;;;;;;11.95;7.60;;;;;;;10.23;64.79;99288.25;5067956;28;20039;-93
2024/03/11 01:14:43;;;;;;;13.60;7.68;;;;;;;10.22;64.81;99288.50;5083924;28;20035;-93
2024/03/11 01:17:08;;;;;;;12.80;7.32;;;;;;;10.26;64.99;99303.03;5068250;28;20384;-94
2024/03/11 01:19:34;;;;;;;13.55;7.70;;;;;;;10.13;65.26;99274.78;5067584;28;20048;-94
2024/03/11 01:22:00;;;;;;;15.23;8.18;;;;;;;10.06;65.46;99269.63;5063708;28;20035;-94
2024/03/11 01:24:27;;;;;;;18.05;8.32;;;;;;;10.08;65.56;99278.25;5084796;28;20031;-94
2024/03/11 01:26:56;;;;;;;11.48;7.35;;;;;;;10.10;65.66;99286.84;5063577;28;20028;-93
2024/03/11 01:29:25;;;;;;;11.93;7.10;;;;;;;10.22;65.36;99297.38;5063623;28;20051;-93
2024/03/11 01:31:50;;;;;;;9.77;6.45;;;;;;;10.14;65.69;99278.28;5050901;28;20016;-94
2024/03/11 01:34:16;;;;;;;13.40;7.13;;;;;;;10.08;65.84;99282.81;5049203;28;20035;-93
2024/03/11 01:36:42;;;;;;;11.93;7.68;;;;;;;10.09;65.96;99282.56;5048984;28;20027;-94
2024/03/11 01:39:12;;;;;;;11.50;7.20;;;;;;;9.91;65.94;99265.06;5049224;28;20020;-94
2024/03/11 01:41:38;;;;;;;13.40;7.43;;;;;;;10.00;65.98;99276.13;5048022;28;20020;-94
2024/03/11 01:44:05;;;;;;;13.88;7.70;;;;;;;9.85;66.08;99260.72;5064340;28;20035;-93
2024/03/11 01:46:32;;;;;;;12.63;7.35;;;;;;;9.95;66.51;99278.78;5065715;28;20054;-92
2024/03/11 01:48:59;;;;;;;15.73;7.97;;;;;;;9.89;66.79;99286.03;5064321;28;20020;-94
2024/03/11 01:51:25;;;;;;;14.25;7.55;;;;;;;9.83;66.58;99284.41;5049416;28;20549;-94
2024/03/11 01:53:51;;;;;;;14.60;7.65;;;;;;;9.76;66.94;99273.09;5063626;28;20047;-93
2024/03/11 01:56:17;;;;;;;10.63;8.13;;;;;;;9.76;66.74;99275.78;5064527;28;20405;-93
2024/03/11 01:58:43;;;;;;;14.45;8.13;;;;;;;9.75;66.82;99271.47;5048203;28;20612;-93
2024/03/11 02:01:09;;;;;;;12.20;8.18;;;;;;;9.66;67.18;99260.44;5063546;28;20024;-93
2024/03/11 02:03:36;;;;;;;13.80;7.85;;;;;;;9.81;66.89;99283.84;5079515;28;20118;-93
2024/03/11 02:06:02;;;;;;;15.88;8.57;;;;;;;9.66;67.02;99265.00;5047725;28;20031;-93
2024/03/11 02:08:27;;;;;;;14.75;8.73;;;;;;;9.67;67.60;99269.28;5062737;28;20023;-92
2024/03/11 02:10:53;;;;;;;13.32;9.00;;;;;;;9.55;67.29;99256.09;5063196;28;20024;-93
2024/03/11 02:13:20;;;;;;;16.02;8.30;;;;;;;9.42;67.26;99240.47;5078163;28;20020;-92
2024/03/11 02:15:47;;;;;;;13.20;8.18;;;;;;;9.54;67.38;99262.53;5063892;28;20031;-93
2024/03/11 02:18:13;;;;;;;12.00;7.85;;;;;;;9.44;67.53;99249.06;5063579;28;20016;-93
2024/03/11 02:20:40;;;;;;;11.80;7.75;;;;;;;9.64;67.73;99278.69;5051104;28;20035;-93
2024/03/11 02:23:06;;;;;;;12.55;8.52;;;;;;;9.56;68.06;99263.09;5066952;28;20034;-92
2024/03/11 02:25:31;;;;;;;12.35;7.63;;;;;;;9.49;68.14;99252.59;5067073;28;20059;-93
2024/03/11 02:28:03;;;;;;;13.35;8.30;;;;;;;9.67;68.01;99264.75;5066068;28;20016;-92
2024/03/11 02:30:28;;;;;;;13.57;7.72;;;;;;;9.68;67.83;99258.28;5083757;28;20019;-93
2024/03/11 02:32:54;;;;;;;12.43;6.75;;;;;;;9.63;67.88;99244.84;5065783;28;20405;-93
2024/03/11 02:35:22;;;;;;;14.77;7.80;;;;;;;9.67;68.00;99250.47;5065980;28;20028;-93
2024/03/11 02:37:48;;;;;;;20.90;9.50;;;;;;;9.60;67.98;99237.28;5066689;28;20034;-94
2024/03/11 02:40:15;;;;;;;16.45;9.38;;;;;;;9.63;68.07;99250.22;5063690;28;20024;-92
2024/03/11 02:42:40;;;;;;;16.35;9.23;;;;;;;9.48;68.25;99225.97;5081896;28;20045;-93
2024/03/11 02:45:11;;;;;;;13.57;9.07;;;;;;;9.50;67.55;99229.19;5066135;28;20027;-92
2024/03/11 02:47:37;;;;;;;13.95;9.02;;;;;;;9.59;67.76;99242.97;5066381;28;20552;-93
2024/03/11 02:50:05;;;;;;;13.13;8.73;;;;;;;9.64;67.38;99241.06;5066103;28;20038;-93
2024/03/11 02:52:34;;;;;;;14.48;8.55;;;;;;;9.73;67.43;99235.16;5065766;28;20026;-93
2024/03/11 02:55:01;;;;;;;15.90;8.88;;;;;;;9.59;67.58;99214.19;5065791;28;20059;-93
2024/03/11 02:57:27;;;;;;;15.93;8.60;;;;;;;9.70;67.95;99236.53;5065728;28;20028;-94
2024/03/11 02:59:53;;;;;;;13.85;8.95;;;;;;;9.66;67.86;99230.06;5065996;28;20023;-93
2024/03/11 03:02:19;;;;;;;13.77;7.75;;;;;;;9.60;67.73;99213.09;5066048;28;20114;-93
2024/03/11 03:04:45;;;;;;;12.45;7.80;;;;;;;9.65;68.10;99234.63;5066836;28;20062;-93
2024/03/11 03:07:12;;;;;;;12.93;7.53;;;;;;;9.67;67.94;99228.97;5082211;28;20080;-93
2024/03/11 03:09:40;;;;;;;11.05;6.47;;;;;;;9.80;67.83;99257.25;5066228;28;20038;-94
2024/03/11 03:12:09;;;;;;;12.40;6.60;;;;;;;9.68;67.72;99236.78;5083536;28;20423;-94
2024/03/11 03:14:36;;;;;;;16.02;8.68;;;;;;;9.75;67.94;99252.66;5064854;28;20023;-94
2024/03/11 03:17:01;;;;;;;16.85;8.52;;;;;;;9.81;67.88;99273.09;5083086;28;20102;-93
2024/03/11 03:19:27;;;;;;;16.80;9.10;;;;;;;9.54;68.16;99248.31;5081336;28;20030;-93
2024/03/11 03:21:52;;;;;;;16.35;9.85;;;;;;;9.65;68.20;99274.13;5065568;28;20039;-94
2024/03/11 03:24:18;;;;;;;16.75;8.77;;;;;;;9.47;68.15;99243.97;5064694;28;20008;-93
2024/03/11 03:26:43;;;;;;;16.88;9.90;;;;;;;9.55;67.89;99255.31;5061407;28;20023;-94
2024/03/11 03:29:09;;;;;;;17.85;10.32;;;;;;;9.54;68.05;99261.75;5062821;28;20463;-93
2024/03/11 03:31:34;;;;;;;15.52;9.80;;;;;;;9.48;67.92;99259.06;5062094;28;20024;-93
2024/03/11 03:34:00;;;;;;;23.08;9.95;;;;;;;9.50;68.49;99281.09;5044446;28;20020;-92
2024/03/11 03:36:25;;;;;;;18.88;10.32;;;;;;;9.26;68.53;99245.78;5053372;28;20024;-93
2024/03/11 03:38:51;;;;;;;17.10;10.50;;;;;;;9.33;68.55;99258.97;5044819;28;20020;-93
2024/03/11 03:41:17;;;;;;;20.23;11.23;;;;;;;9.30;68.81;99267.59;5045853;28;20024;-92
2024/03/11 03:43:43;;;;;;;18.45;10.23;;;;;;;9.08;68.76;99270.41;5046438;28;20061;-93
2024/03/11 03:46:09;;;;;;;24.52;10.93;;;;;;;9.07;69.05;99266.94;5061428;28;20505;-93
2024/03/11 03:48:34;;;;;;;16.20;10.10;;;;;;;9.12;69.03;99276.88;5062062;28;20636;-93
2024/03/11 03:51:03;;;;;;;20.55;10.68;;;;;;;9.03;68.98;99262.34;5044651;28;20024;-93
2024/03/11 03:53:29;;;;;;;18.27;10.40;;;;;;;9.11;69.00;99280.66;5061460;28;20412;-93
2024/03/11 03:55:54;;;;;;;19.52;9.55;;;;;;;9.14;69.19;99273.94;5065377;28;20020;-93
2024/03/11 03:58:20;;;;;;;14.50;9.30;;;;;;;9.05;69.40;99270.97;5064269;28;20117;-93
2024/03/11 04:00:45;;;;;;;14.82;9.50;;;;;;;9.20;69.67;99276.41;5081941;28;20020;-94
2024/03/11 04:03:11;;;;;;;17.02;9.52;;;;;;;9.14;69.29;99257.84;5065811;28;20023;-94
2024/03/11 04:05:37;;;;;;;17.90;10.30;;;;;;;9.24;69.36;99272.13;5061003;28;20051;-93
2024/03/11 04:08:02;;;;;;;16.25;9.13;;;;;;;9.37;69.16;99291.50;5081867;28;20035;-94
2024/03/11 04:10:28;;;;;;;13.50;9.20;;;;;;;9.35;68.82;99280.22;5080829;28;20431;-93
2024/03/11 04:12:55;;;;;;;17.70;9.57;;;;;;;9.32;68.95;99268.13;5079084;28;20028;-93
2024/03/11 04:15:23;;;;;;;14.13;8.80;;;;;;;9.50;68.96;99293.72;5071414;28;20024;-94
2024/03/11 04:17:49;;;;;;;15.75;9.13;;;;;;;9.39;68.72;99260.63;5064683;28;20088;-94
2024/03/11 04:20:15;;;;;;;17.52;8.93;;;;;;;9.42;68.68;99272.72;5063048;28;20020;-94
2024/03/11 04:22:46;;;;;;;13.98;9.15;;;;;;;9.54;68.97;99288.63;5061199;28;20081;-94
2024/03/11 04:25:32;;;;;;;18.13;9.63;;;;;;;9.42;68.79;99283.47;5061712;28;20118;-95
2024/03/11 04:28:02;;;;;;;17.35;9.77;;;;;;;9.51;68.82;99295.34;5076606;28;20024;-93
2024/03/11 04:30:31;;;;;;;18.67;9.25;;;;;;;9.34;68.95;99267.84;5040615;28;20056;-94
2024/03/11 04:32:58;;;;;;;18.92;9.10;;;;;;;9.36;68.83;99273.75;5057334;28;20035;-93
2024/03/11 04:35:27;;;;;;;21.95;9.63;;;;;;;9.41;69.11;99277.28;5058424;28;20105;-93
2024/03/11 04:37:57;;;;;;;20.27;9.77;;;;;;;9.19;69.22;99260.53;5077259;28;20095;-93
2024/03/11 04:40:25;;;;;;;20.10;9.00;;;;;;;9.19;69.22;99258.66;5073356;28;20031;-93
2024/03/11 04:45:37;;;;;;;16.95;9.20;;;;;;;9.35;69.67;99280.22;5084715;28;20027;-94
2024/03/11 04:48:04;;;;;;;16.75;9.27;;;;;;;9.27;69.41;99268.09;5080729;28;20067;-94
2024/03/11 04:50:30;;;;;;;25.55;10.90;;;;;;;9.29;69.50;99279.38;5080739;28;20031;-94
2024/03/11 04:53:03;;;;;;;17.13;9.60;;;;;;;9.51;69.52;99304.19;5062418;28;20474;-93
2024/03/11 04:55:28;;;;;;;16.58;8.82;;;;;;;9.48;69.52;99290.47;5072907;28;20024;-94
2024/03/11 04:57:55;;;;;;;19.70;10.20;;;;;;;9.57;69.25;99294.28;5061439;28;20036;-95
2024/03/11 05:00:26;;;;;;;14.65;8.50;;;;;;;9.71;68.90;99310.72;5048512;28;20039;-94
2024/03/11 05:02:52;;;;;;;17.17;8.70;;;;;;;9.69;68.84;99294.88;5064757;28;20089;-93
2024/03/11 05:05:21;;;;;;;16.15;7.47;;;;;;;9.77;68.05;99281.97;5062379;28;20266;-96
2024/03/11 05:07:46;;;;;;;22.98;11.70;;;;;;;9.80;67.54;99276.06;5063853;28;20030;-93
2024/03/11 05:10:12;;;;;;;14.57;8.90;;;;;;;10.07;67.06;99300.06;5060320;28;20302;-92
2024/03/11 05:12:37;;;;;;;14.68;8.18;;;;;;;10.09;66.68;99282.56;5059971;28;20078;-94
2024/03/11 05:15:07;;;;;;;35.55;10.82;;;;;;;10.28;66.17;99298.19;5057540;28;20025;-92
2024/03/11 05:17:35;;;;;;;26.05;9.65;;;;;;;10.34;66.17;99281.00;5066024;28;20414;-93
2024/03/11 05:20:06;;;;;;;29.55;12.10;;;;;;;10.44;65.74;99266.75;5060297;28;20036;-91
2024/03/11 05:22:33;;;;;;;23.75;11.90;;;;;;;10.57;65.80;99289.63;5060690;28;20216;-92
2024/03/11 05:24:59;;;;;;;37.67;17.40;;;;;;;10.66;65.75;99298.75;5072670;28;20466;-92
2024/03/11 05:27:27;;;;;;;33.70;16.80;;;;;;;10.71;65.14;99306.84;5063552;28;20027;-92
2024/03/11 05:29:53;;;;;;;30.98;15.55;;;;;;;10.59;64.71;99284.78;5096656;28;20048;-92
2024/03/11 05:32:19;;;;;;;38.83;12.63;;;;;;;10.56;65.29;99282.59;5082018;28;20027;-91
2024/03/11 05:34:47;;;;;;;36.45;14.50;;;;;;;10.59;65.67;99290.97;5080954;28;20040;-91
2024/03/11 05:37:13;;;;;;;29.08;14.50;;;;;;;10.56;65.65;99302.25;5064503;28;20193;-91
2024/03/11 05:39:41;;;;;;;28.60;15.02;;;;;;;10.52;65.71;99301.16;5061534;28;20063;-94
2024/03/11 05:42:09;;;;;;;29.50;13.93;;;;;;;10.77;65.30;99318.41;5062127;28;20538;-92
2024/03/11 05:44:45;;;;;;;;;;;;;;;;;;;;;
2024/03/11 05:47:13;;;;;;;30.80;14.82;;;;;;;10.98;64.83;99306.53;5083545;28;20103;-94
2024/03/11 05:49:41;;;;;;;47.50;15.52;;;;;;;10.84;64.89;99276.66;5083285;28;20032;-94
2024/03/11 05:52:08;;;;;;;38.20;15.05;;;;;;;11.01;64.56;99292.50;5067458;28;20056;-92
2024/03/11 05:54:38;;;;;;;29.98;11.55;;;;;;;10.92;64.09;99254.53;5070666;28;20020;-95
2024/03/11 05:57:04;;;;;;;25.73;9.35;;;;;;;11.09;63.19;99262.31;5066239;28;20035;-93
2024/03/11 05:59:31;;;;;;;16.35;8.05;;;;;;;11.27;62.71;99277.06;5066183;28;20024;-94
2024/03/11 06:02:00;;;;;;;35.65;17.50;;;;;;;11.24;62.10;99247.97;5084701;28;20048;-95
2024/03/11 06:04:25;;;;;;;18.58;9.73;;;;;;;11.39;62.07;99239.00;5068937;28;20024;-94
2024/03/11 06:06:53;;;;;;;27.50;11.65;;;;;;;11.58;61.92;99255.38;5067700;28;20035;-94
2024/03/11 06:09:18;;;;;;;25.73;12.60;;;;;;;11.66;61.81;99248.56;5081933;28;20516;-93
2024/03/11 06:12:11;;;;;;;20.45;10.90;;;;;;;11.83;61.47;99250.88;5065618;28;20024;-94
2024/03/11 06:14:38;;;;;;;24.67;11.23;;;;;;;12.00;61.34;99266.75;5099069;28;20035;-93
2024/03/11 06:17:10;;;;;;;30.65;13.13;;;;;;;11.95;61.63;99239.78;5069410;28;20032;-93
2024/03/11 06:19:37;;;;;;;28.90;13.57;;;;;;;12.06;61.16;99231.34;5065047;28;20409;-96
2024/03/11 06:22:03;;;;;;;62.80;31.55;;;;;;;12.28;61.20;99246.28;5068169;28;20042;-94
2024/03/11 06:24:30;;;;;;;101.75;50.47;;;;;;;12.44;60.23;99255.06;5068539;28;20047;-93
2024/03/11 06:26:57;;;;;;;16.48;8.68;;;;;;;12.53;58.77;99243.38;5081761;28;20028;-95
2024/03/11 06:29:26;;;;;;;11.02;6.43;;;;;;;12.79;57.42;99264.72;5066696;28;20113;-96
2024/03/11 06:32:06;;;;;;;21.92;11.23;;;;;;;12.86;57.50;99242.78;5066385;28;20024;-96
2024/03/11 06:34:32;;;;;;;18.20;8.88;;;;;;;13.04;57.17;99250.13;5067829;28;20024;-94
2024/03/11 06:36:57;;;;;;;19.63;8.15;;;;;;;13.06;56.72;99228.25;5066707;28;20088;-94
2024/03/11 06:39:24;;;;;;;22.45;9.40;;;;;;;13.13;57.40;99226.78;5064988;28;20024;-94
2024/03/11 06:41:50;;;;;;;27.58;12.30;;;;;;;13.20;58.32;99228.31;5081112;28;20020;-94
2024/03/11 06:44:17;;;;;;;31.40;13.30;;;;;;;13.28;58.23;99250.16;5065028;28;20024;-94
2024/03/11 06:46:42;;;;;;;30.33;15.38;;;;;;;13.26;58.67;99251.50;5066303;28;20024;-94
2024/03/11 06:49:20;;;;;;;23.55;12.48;;;;;;;13.22;58.58;99224.25;5064300;28;20383;-92
2024/03/11 06:51:46;;;;;;;29.40;15.68;;;;;;;13.43;58.40;99219.41;5066811;28;20016;-95
2024/03/11 06:54:11;;;;;;;27.42;11.18;;;;;;;13.55;57.54;99210.88;5082783;28;20058;-96
2024/03/11 06:56:51;;;;;;;42.70;13.30;;;;;;;13.66;57.52;99211.53;5077706;28;20061;-96
2024/03/11 06:59:34;;;;;;;28.45;12.75;;;;;;;13.80;57.44;99211.59;5105264;28;20036;-96
2024/03/11 07:12:42;;;;;;;14.35;7.32;;;;;;;14.55;51.58;99227.72;5064604;28;20075;-92
2024/03/11 07:21:44;;;;;;;15.88;6.97;;;;;;;14.94;50.44;99206.66;5054268;28;20036;-92
2024/03/11 07:27:47;;;;;;;10.27;5.00;;;;;;;15.31;48.98;99183.94;5050508;22;20054;-95
2024/03/11 07:30:47;;;;;;;;;;;;;;;;;;;;;
2024/03/11 07:33:15;;;;;;;12.48;7.30;;;;;;;15.48;48.34;99179.78;4921742;29;20573;-95
2024/03/11 07:35:44;;;;;;;12.07;6.93;;;;;;;15.66;48.08;99197.03;4966668;28;20149;-94
2024/03/11 07:38:10;;;;;;;15.80;6.85;;;;;;;15.71;47.72;99192.28;4986543;28;20045;-92
2024/03/11 07:40:39;;;;;;;16.10;7.43;;;;;;;15.82;47.53;99192.88;4987769;28;20033;-96
2024/03/11 07:43:08;;;;;;;20.10;7.78;;;;;;;15.88;47.51;99194.38;5019746;28;20029;-94
2024/03/11 07:45:46;;;;;;;19.98;8.88;;;;;;;15.99;47.50;99203.06;4988603;28;20036;-95
2024/03/11 07:48:24;;;;;;;16.02;9.30;;;;;;;15.89;47.60;99179.66;5006483;28;20024;-94
2024/03/11 07:50:53;;;;;;;23.77;8.43;;;;;;;16.03;47.69;99195.91;4987853;28;20033;-91
2024/03/11 07:53:19;;;;;;;17.63;10.73;;;;;;;16.17;47.30;99212.16;5002557;28;20014;-95
2024/03/11 07:55:44;;;;;;;49.78;27.35;;;;;;;16.04;47.23;99181.22;4988533;28;20068;-92
2024/03/11 07:58:11;;;;;;;19.67;10.50;;;;;;;16.16;46.57;99196.94;5203151;22;20049;-95
2024/03/11 08:00:54;;;;;;;14.50;7.38;;;;;;;16.24;46.07;99204.34;5017953;28;20009;-94
2024/03/11 08:03:22;;;;;;;20.30;8.07;;;;;;;16.18;46.64;99208.31;5048548;28;20032;-94
2024/03/11 08:06:40;;;;;;;23.33;7.55;;;;;;;16.20;45.88;99219.66;5032834;28;20017;-95
2024/03/11 08:09:14;;;;;;;18.00;5.93;;;;;;;16.19;46.43;99228.94;5036965;28;20033;-95
2024/03/11 08:11:40;;;;;;;13.93;5.47;;;;;;;16.06;47.06;99211.59;5023231;28;20096;-93
2024/03/11 08:14:08;;;;;;;13.73;5.63;;;;;;;16.12;46.87;99215.78;5017385;28;20021;-95
2024/03/11 08:16:34;;;;;;;7.63;4.82;;;;;;;16.11;46.65;99213.38;5022104;28;20043;-96
2024/03/11 08:22:04;;;;;;;14.18;5.47;;;;;;;16.12;46.30;99209.53;5046175;28;20067;-95
2024/03/11 08:25:02;;;;;;;19.65;6.22;;;;;;;16.15;46.12;99211.66;5019297;28;20030;-95
2024/03/11 08:27:44;;;;;;;12.43;5.82;;;;;;;16.29;46.01;99238.72;5032479;28;20135;-95
2024/03/11 08:30:13;;;;;;;;;;;;;;;16.40;46.18;99244.75;5023305;28;20024;-95
2024/03/11 08:32:46;;;;;;;12.07;6.25;;;;;;;16.16;45.40;99237.69;5038119;28;19944;-95
2024/03/11 08:35:14;;;;;;;13.73;5.97;;;;;;;16.39;45.86;99267.56;5038634;28;20032;-94
2024/03/11 08:37:52;;;;;;;21.35;6.00;;;;;;;16.31;46.12;99269.13;5017706;28;20033;-95
2024/03/11 08:40:21;;;;;;;17.98;7.78;;;;;;;16.19;45.49;99239.00;5038079;28;20027;-92
2024/03/11 08:42:51;;;;;;;13.52;6.80;;;;;;;16.06;45.58;99219.75;5053356;28;20157;-92
2024/03/11 08:45:22;;;;;;;12.02;5.15;;;;;;;15.94;46.19;99236.59;5051114;28;20110;-92
2024/03/11 08:47:54;;;;;;;11.27;6.70;;;;;;;16.06;45.38;99227.06;5016994;28;20056;-90
2024/03/11 08:50:26;;;;;;;;;;;;;;;16.25;45.26;99249.44;5029982;28;20021;-96
2024/03/11 08:53:15;;;;;;;11.45;4.43;;;;;;;16.30;44.17;99235.72;5024292;28;19940;-96
2024/03/11 08:55:48;;;;;;;10.13;5.57;;;;;;;16.36;44.08;99217.38;4992337;28;20037;-92
2024/03/11 08:58:19;;;;;;;13.05;4.50;;;;;;;16.42;44.25;99218.06;5039244;28;20112;-92
2024/03/11 09:00:45;;;;;;;14.33;4.20;;;;;;;16.48;44.23;99217.59;5053131;28;20017;-91
2024/03/11 09:03:15;;;;;;;11.25;4.20;;;;;;;16.50;44.41;99218.09;5038122;28;20025;-91
2024/03/11 09:05:43;;;;;;;15.32;9.82;;;;;;;16.50;44.54;99204.50;5017924;28;20032;-92
2024/03/11 09:08:10;;;;;;;13.48;5.97;;;;;;;16.51;44.05;99195.22;5037166;28;20061;-91
2024/03/11 09:11:34;;;;;;;11.50;4.30;;;;;;;16.80;44.06;99221.13;5039853;28;20375;-93
2024/03/11 09:14:00;;;;;;;19.85;7.30;;;;;;;16.64;44.15;99190.00;5063734;28;20040;-91
2024/03/11 09:16:29;;;;;;;9.75;4.50;;;;;;;16.69;44.38;99171.66;5029988;28;20040;-90
2024/03/11 09:18:55;;;;;;;12.93;5.40;;;;;;;16.75;43.67;99173.13;5038805;28;20012;-90
2024/03/11 09:21:24;;;;;;;13.75;4.68;;;;;;;16.71;43.00;99187.66;5071078;28;20050;-91
2024/03/11 09:23:49;;;;;;;15.00;5.43;;;;;;;16.76;43.06;99171.97;5054464;28;20024;-96
2024/03/11 09:26:21;;;;;;;13.38;4.22;;;;;;;16.90;42.75;99184.72;5069244;28;20029;-94
2024/03/11 09:28:50;;;;;;;10.65;4.90;;;;;;;16.84;42.38;99180.53;5069277;28;20037;-94
2024/03/11 09:31:15;;;;;;;9.30;4.10;;;;;;;16.72;41.82;99178.38;5017105;28;20033;-93
2024/03/11 09:33:42;;;;;;;13.43;5.40;;;;;;;16.82;42.45;99208.03;5035063;28;20048;-94
2024/03/11 09:36:09;;;;;;;19.50;11.10;;;;;;;16.71;42.28;99184.94;5060838;28;20021;-94
2024/03/11 09:38:36;;;;;;;19.02;4.75;;;;;;;16.91;41.84;99208.88;5057421;28;20044;-95
2024/03/11 09:41:14;;;;;;;21.33;17.42;;;;;;;16.75;42.29;99194.88;5074305;28;20051;-95
2024/03/11 09:43:49;;;;;;;13.48;6.93;;;;;;;16.88;41.77;99212.22;5056943;28;20031;-92
2024/03/11 09:46:22;;;;;;;21.40;5.15;;;;;;;16.68;42.63;99193.72;5070382;28;20035;-92
2024/03/11 09:48:57;;;;;;;14.30;4.10;;;;;;;16.74;42.68;99192.47;5053491;28;20035;-95
2024/03/11 09:51:30;;;;;;;12.48;3.92;;;;;;;16.86;42.42;99200.84;5018701;28;20041;-92
2024/03/11 09:54:25;;;;;;;11.77;4.13;;;;;;;16.66;42.79;99188.56;5054758;28;20058;-95
2024/03/11 09:56:52;;;;;;;5.85;3.35;;;;;;;16.73;42.96;99197.09;5030046;28;20048;-94
2024/03/11 09:59:30;;;;;;;13.07;4.60;;;;;;;16.63;42.60;99200.09;5021579;28;20049;-94
2024/03/11 10:02:13;;;;;;;9.93;4.63;;;;;;;16.71;42.52;99201.25;5039893;28;20025;-96
2024/03/11 10:10:02;;;;;;;;;;;;;;;;;;;;;
2024/03/11 10:13:23;;;;;;;;;;;;;;;;;;;;;
2024/03/11 10:27:14;;;;;;;8.33;4.47;;;;;;;17.15;41.75;99227.50;4930707;29;20138;-96
2024/03/11 10:29:54;;;;;;;12.10;3.88;;;;;;;16.92;41.92;99202.31;4935797;29;20012;-94
2024/03/11 10:32:45;;;;;;;7.55;4.05;;;;;;;16.95;42.07;99214.47;4922846;29;20044;-95
2024/03/11 10:35:20;;;;;;;5.13;3.70;;;;;;;16.95;41.65;99230.78;4901523;29;20032;-92
2024/03/11 10:41:27;;;;;;;11.57;4.05;;;;;;;16.87;42.45;99235.09;4915728;29;20044;-93
2024/03/11 10:44:09;;;;;;;;;;;;;;;;;;;;;
2024/03/11 10:53:42;;;;;;;9.38;4.50;;;;;;;17.04;42.39;99223.50;4966250;28;20039;-93
2024/03/11 10:56:19;;;;;;;14.15;5.63;;;;;;;17.14;41.83;99217.75;4975091;28;20027;-90
2024/03/11 10:58:49;;;;;;;13.18;5.97;;;;;;;17.14;42.38;99209.59;4955193;28;20026;-90
2024/03/11 11:01:16;;;;;;;13.32;7.72;;;;;;;17.38;42.04;99213.81;4977685;28;20049;-91
2024/03/11 11:03:46;;;;;;;43.92;17.08;;;;;;;17.46;41.70;99187.72;5006374;28;20033;-91
2024/03/11 11:06:15;;;;;;;11.30;4.68;;;;;;;17.63;41.77;99179.56;5009303;28;20029;-90
2024/03/11 11:08:46;;;;;;;12.23;4.97;;;;;;;17.87;40.84;99205.56;4999995;28;20112;-91
2024/03/11 11:11:19;;;;;;;;;;;;;;;17.83;40.83;99210.84;4996902;28;20051;-91
2024/03/11 11:14:02;;;;;;;13.98;4.63;;;;;;;17.89;40.71;99187.75;4999355;28;19945;-91
2024/03/11 11:19:56;;;;;;;11.55;4.18;;;;;;;18.01;40.60;99164.50;5001265;28;20034;-94
2024/03/11 11:22:30;;;;;;;6.47;3.88;;;;;;;18.06;40.59;99161.63;4952847;28;20125;-93
2024/03/11 11:25:10;;;;;;;;;;;;;;;;;;;;;
2024/03/11 11:27:39;;;;;;;13.57;5.93;;;;;;;18.49;40.36;99177.03;4970418;28;20113;-92
2024/03/11 11:30:22;;;;;;;14.68;4.78;;;;;;;18.43;39.69;99164.72;4968397;28;20403;-93
2024/03/11 11:33:03;;;;;;;;;;;;;;;;;;;;;
2024/03/11 11:36:09;;;;;;;11.93;4.45;;;;;;;18.02;40.73;99164.19;5004788;28;20093;-92
2024/03/11 11:45:08;;;;;;;9.05;4.40;;;;;;;17.84;40.47;99154.44;4991165;28;19915;-95
2024/03/11 11:47:47;;;;;;;17.80;6.85;;;;;;;18.00;40.69;99160.97;5010838;28;20029;-92
2024/03/11 11:50:34;;;;;;;13.55;5.45;;;;;;;17.92;40.96;99162.59;4990348;28;20360;-91
2024/03/11 11:56:36;;;;;;;12.15;4.32;;;;;;;17.86;41.10;99146.75;4993075;28;20092;-94
2024/03/11 11:59:04;;;;;;;15.30;4.47;;;;;;;17.84;41.06;99130.72;4978030;28;20427;-94
2024/03/11 12:01:53;;;;;;;8.20;4.28;;;;;;;17.69;40.88;99133.91;4985921;28;20472;-92
2024/03/11 12:04:19;;;;;;;12.43;5.40;;;;;;;17.52;41.75;99111.00;4998611;28;20029;-91
2024/03/11 12:06:49;;;;;;;12.73;4.25;;;;;;;17.74;41.63;99131.84;5014973;28;20041;-93
2024/03/11 12:09:14;;;;;;;10.65;3.92;;;;;;;17.74;41.39;99126.38;4989087;28;20495;-92
2024/03/11 12:11:55;;;;;;;15.10;5.50;;;;;;;17.75;41.60;99117.06;4990775;28;20034;-95
2024/03/11 12:14:22;;;;;;;13.70;4.03;;;;;;;17.89;40.87;99118.88;5004373;28;20030;-92
2024/03/11 12:16:50;;;;;;;8.98;4.85;;;;;;;18.02;41.29;99131.50;4986020;28;20042;-93
2024/03/11 12:19:17;;;;;;;13.38;4.93;;;;;;;17.87;41.43;99097.41;4985537;28;20038;-93
2024/03/11 12:22:02;;;;;;;;;;;;;;;;;;;;;
2024/03/11 12:24:27;;;;;;;13.80;4.25;;;;;;;17.75;40.96;99102.66;5013980;28;20120;-92
2024/03/11 12:26:55;;;;;;;10.98;3.85;;;;;;;18.02;40.55;99122.53;4979518;28;20056;-94
2024/03/11 12:29:24;;;;;;;9.73;3.65;;;;;;;18.09;40.72;99101.00;5035425;28;20026;-94
2024/03/11 12:32:05;;;;;;;14.52;4.95;;;;;;;18.14;40.65;99128.09;4990785;28;20041;-94
2024/03/11 12:34:36;;;;;;;10.85;5.10;;;;;;;18.06;40.54;99104.41;4977687;28;20041;-95
2024/03/11 12:39:50;;;;;;;19.17;9.65;;;;;;;18.09;41.00;99118.16;5006585;28;20109;-94
2024/03/11 12:42:27;;;;;;;53.55;33.90;;;;;;;18.30;40.85;99114.72;4988686;28;20030;-94
2024/03/11 12:45:15;;;;;;;19.10;9.05;;;;;;;18.20;41.04;99115.91;4972884;28;20033;-93
2024/03/11 12:47:53;;;;;;;9.40;5.30;;;;;;;18.08;41.34;99102.94;4996086;28;20030;-94
2024/03/11 12:50:29;;;;;;;6.57;3.72;;;;;;;18.15;41.34;99099.72;4998667;28;20022;-93
2024/03/11 12:53:02;;;;;;;15.75;4.00;;;;;;;18.09;41.69;99101.00;5000071;28;20171;-93
2024/03/11 12:55:36;;;;;;;8.68;3.38;;;;;;;17.92;41.82;99089.03;5006689;28;20022;-91
2024/03/11 12:58:10;;;;;;;8.30;4.07;;;;;;;18.00;42.26;99098.31;5016539;28;20029;-93
2024/03/11 13:03:47;;;;;;;9.57;3.30;;;;;;;17.93;41.84;99079.75;4976738;28;20034;-91